sensor_id;sensor_type;location;lat;lon;timestamp;temperature;humidity
67364;HTU21D;54250;45.572;38.086;2023-05-07T00:01:46;14.45;74.92
67364;HTU21D;54250;45.572;38.086;2023-05-07T00:04:12;14.43;74.89
67364;HTU21D;54250;45.572;38.086;2023-05-07T00:06:39;14.40;74.73
67364;HTU21D;54250;45.572;38.086;2023-05-07T00:09:06;14.38;74.86
67364;HTU21D;54250;45.572;38.086;2023-05-07T00:11:33;14.34;74.88
67364;HTU21D;54250;45.572;38.086;2023-05-07T00:13:59;14.34;75.01
67364;HTU21D;54250;45.572;38.086;2023-05-07T00:16:25;14.29;74.87
67364;HTU21D;54250;45.572;38.086;2023-05-07T00:18:52;14.28;74.84
67364;HTU21D;54250;45.572;38.086;2023-05-07T00:21:18;14.25;74.85
67364;HTU21D;54250;45.572;38.086;2023-05-07T00:23:44;14.24;74.90
67364;HTU21D;54250;45.572;38.086;2023-05-07T00:26:10;14.22;74.96
67364;HTU21D;54250;45.572;38.086;2023-05-07T00:28:36;14.22;74.83
67364;HTU21D;54250;45.572;38.086;2023-05-07T00:31:03;14.21;74.89
67364;HTU21D;54250;45.572;38.086;2023-05-07T00:33:29;14.20;74.83
67364;HTU21D;54250;45.572;38.086;2023-05-07T00:35:55;14.19;74.99
67364;HTU21D;54250;45.572;38.086;2023-05-07T00:38:21;14.18;74.82
67364;HTU21D;54250;45.572;38.086;2023-05-07T00:40:47;14.15;74.84
67364;HTU21D;54250;45.572;38.086;2023-05-07T00:43:13;14.14;74.86
67364;HTU21D;54250;45.572;38.086;2023-05-07T00:45:39;14.14;74.73
67364;HTU21D;54250;45.572;38.086;2023-05-07T00:48:05;14.13;74.75
67364;HTU21D;54250;45.572;38.086;2023-05-07T00:50:32;14.13;74.66
67364;HTU21D;54250;45.572;38.086;2023-05-07T00:52:58;14.10;74.67
67364;HTU21D;54250;45.572;38.086;2023-05-07T00:55:25;14.09;74.76
67364;HTU21D;54250;45.572;38.086;2023-05-07T00:57:52;14.07;74.69
67364;HTU21D;54250;45.572;38.086;2023-05-07T01:00:18;14.08;74.77
67364;HTU21D;54250;45.572;38.086;2023-05-07T01:02:45;14.06;74.83
67364;HTU21D;54250;45.572;38.086;2023-05-07T01:05:15;14.05;74.70
67364;HTU21D;54250;45.572;38.086;2023-05-07T01:07:42;14.04;74.83
67364;HTU21D;54250;45.572;38.086;2023-05-07T01:10:09;14.00;74.67
67364;HTU21D;54250;45.572;38.086;2023-05-07T01:12:37;13.96;74.68
67364;HTU21D;54250;45.572;38.086;2023-05-07T01:15:06;13.92;74.90
67364;HTU21D;54250;45.572;38.086;2023-05-07T01:17:37;13.90;74.86
67364;HTU21D;54250;45.572;38.086;2023-05-07T01:20:06;13.86;74.94
67364;HTU21D;54250;45.572;38.086;2023-05-07T01:22:38;13.83;75.01
67364;HTU21D;54250;45.572;38.086;2023-05-07T01:25:07;13.79;74.94
67364;HTU21D;54250;45.572;38.086;2023-05-07T01:27:35;13.78;75.17
67364;HTU21D;54250;45.572;38.086;2023-05-07T01:30:04;13.75;75.18
67364;HTU21D;54250;45.572;38.086;2023-05-07T01:32:35;13.75;74.99
67364;HTU21D;54250;45.572;38.086;2023-05-07T01:35:05;13.73;75.01
67364;HTU21D;54250;45.572;38.086;2023-05-07T01:37:33;13.71;74.98
67364;HTU21D;54250;45.572;38.086;2023-05-07T01:40:01;13.68;75.07
67364;HTU21D;54250;45.572;38.086;2023-05-07T01:42:28;13.69;75.02
67364;HTU21D;54250;45.572;38.086;2023-05-07T01:44:55;13.66;75.01
67364;HTU21D;54250;45.572;38.086;2023-05-07T01:47:21;13.63;75.09
67364;HTU21D;54250;45.572;38.086;2023-05-07T01:49:48;13.61;75.03
67364;HTU21D;54250;45.572;38.086;2023-05-07T01:52:14;13.59;75.09
67364;HTU21D;54250;45.572;38.086;2023-05-07T01:54:40;13.56;75.03
67364;HTU21D;54250;45.572;38.086;2023-05-07T01:57:06;13.53;75.18
67364;HTU21D;54250;45.572;38.086;2023-05-07T01:59:33;13.53;75.17
67364;HTU21D;54250;45.572;38.086;2023-05-07T02:01:59;13.52;75.08
67364;HTU21D;54250;45.572;38.086;2023-05-07T02:04:26;13.49;75.09
67364;HTU21D;54250;45.572;38.086;2023-05-07T02:06:53;13.47;75.18
67364;HTU21D;54250;45.572;38.086;2023-05-07T02:09:20;13.45;75.17
67364;HTU21D;54250;45.572;38.086;2023-05-07T02:11:48;13.46;75.05
67364;HTU21D;54250;45.572;38.086;2023-05-07T02:14:14;13.45;74.98
67364;HTU21D;54250;45.572;38.086;2023-05-07T02:16:41;13.46;74.91
67364;HTU21D;54250;45.572;38.086;2023-05-07T02:19:08;13.44;74.99
67364;HTU21D;54250;45.572;38.086;2023-05-07T02:21:35;13.44;75.10
67364;HTU21D;54250;45.572;38.086;2023-05-07T02:24:01;13.43;74.93
67364;HTU21D;54250;45.572;38.086;2023-05-07T02:26:27;13.44;74.94
67364;HTU21D;54250;45.572;38.086;2023-05-07T02:28:53;13.44;74.89
67364;HTU21D;54250;45.572;38.086;2023-05-07T02:31:19;13.43;74.90
67364;HTU21D;54250;45.572;38.086;2023-05-07T02:33:45;13.43;75.02
67364;HTU21D;54250;45.572;38.086;2023-05-07T02:36:12;13.43;74.95
67364;HTU21D;54250;45.572;38.086;2023-05-07T02:38:54;13.43;74.89
67364;HTU21D;54250;45.572;38.086;2023-05-07T02:41:20;13.43;74.97
67364;HTU21D;54250;45.572;38.086;2023-05-07T02:43:46;13.43;74.92
67364;HTU21D;54250;45.572;38.086;2023-05-07T02:46:13;13.44;74.86
67364;HTU21D;54250;45.572;38.086;2023-05-07T02:48:43;13.44;74.99
67364;HTU21D;54250;45.572;38.086;2023-05-07T02:51:09;13.46;74.88
67364;HTU21D;54250;45.572;38.086;2023-05-07T02:53:37;13.49;74.73
67364;HTU21D;54250;45.572;38.086;2023-05-07T02:56:04;13.51;74.63
67364;HTU21D;54250;45.572;38.086;2023-05-07T02:58:31;13.49;74.69
67364;HTU21D;54250;45.572;38.086;2023-05-07T03:00:59;13.47;74.85
67364;HTU21D;54250;45.572;38.086;2023-05-07T03:03:31;13.45;74.80
67364;HTU21D;54250;45.572;38.086;2023-05-07T03:05:57;13.45;74.77
67364;HTU21D;54250;45.572;38.086;2023-05-07T03:08:23;13.47;74.69
67364;HTU21D;54250;45.572;38.086;2023-05-07T03:10:49;13.45;74.63
67364;HTU21D;54250;45.572;38.086;2023-05-07T03:13:16;13.45;74.76
67364;HTU21D;54250;45.572;38.086;2023-05-07T03:15:42;13.46;74.66
67364;HTU21D;54250;45.572;38.086;2023-05-07T03:18:08;13.45;74.74
67364;HTU21D;54250;45.572;38.086;2023-05-07T03:20:34;13.47;74.61
67364;HTU21D;54250;45.572;38.086;2023-05-07T03:23:00;13.46;74.69
67364;HTU21D;54250;45.572;38.086;2023-05-07T03:25:26;13.46;74.70
67364;HTU21D;54250;45.572;38.086;2023-05-07T03:27:52;13.46;74.83
67364;HTU21D;54250;45.572;38.086;2023-05-07T03:30:22;13.44;74.77
67364;HTU21D;54250;45.572;38.086;2023-05-07T03:32:48;13.44;74.82
67364;HTU21D;54250;45.572;38.086;2023-05-07T03:35:14;13.45;74.67
67364;HTU21D;54250;45.572;38.086;2023-05-07T03:37:40;13.47;74.60
67364;HTU21D;54250;45.572;38.086;2023-05-07T03:40:08;13.46;74.85
67364;HTU21D;54250;45.572;38.086;2023-05-07T03:42:42;13.44;75.06
67364;HTU21D;54250;45.572;38.086;2023-05-07T03:45:10;13.44;74.98
67364;HTU21D;54250;45.572;38.086;2023-05-07T03:47:39;13.41;75.18
67364;HTU21D;54250;45.572;38.086;2023-05-07T03:50:07;13.41;75.02
67364;HTU21D;54250;45.572;38.086;2023-05-07T03:52:33;13.43;75.13
67364;HTU21D;54250;45.572;38.086;2023-05-07T03:55:02;13.39;75.18
67364;HTU21D;54250;45.572;38.086;2023-05-07T03:57:29;13.41;75.08
67364;HTU21D;54250;45.572;38.086;2023-05-07T03:59:57;13.40;74.89
67364;HTU21D;54250;45.572;38.086;2023-05-07T04:02:23;13.39;74.98
67364;HTU21D;54250;45.572;38.086;2023-05-07T04:04:49;13.40;74.90
67364;HTU21D;54250;45.572;38.086;2023-05-07T04:07:16;13.38;74.98
67364;HTU21D;54250;45.572;38.086;2023-05-07T04:09:46;13.39;75.15
67364;HTU21D;54250;45.572;38.086;2023-05-07T04:12:12;13.39;75.08
67364;HTU21D;54250;45.572;38.086;2023-05-07T04:14:38;13.40;75.12
67364;HTU21D;54250;45.572;38.086;2023-05-07T04:17:05;13.43;75.18
67364;HTU21D;54250;45.572;38.086;2023-05-07T04:19:35;13.45;75.13
67364;HTU21D;54250;45.572;38.086;2023-05-07T04:22:04;13.46;75.00
67364;HTU21D;54250;45.572;38.086;2023-05-07T04:24:33;13.50;75.01
67364;HTU21D;54250;45.572;38.086;2023-05-07T04:27:01;13.53;75.00
67364;HTU21D;54250;45.572;38.086;2023-05-07T04:29:27;13.55;75.09
67364;HTU21D;54250;45.572;38.086;2023-05-07T04:31:55;13.61;74.91
67364;HTU21D;54250;45.572;38.086;2023-05-07T04:34:22;13.65;74.89
67364;HTU21D;54250;45.572;38.086;2023-05-07T04:36:48;13.69;74.76
67364;HTU21D;54250;45.572;38.086;2023-05-07T04:39:14;13.73;74.76
67364;HTU21D;54250;45.572;38.086;2023-05-07T04:41:43;13.68;74.86
67364;HTU21D;54250;45.572;38.086;2023-05-07T04:44:09;13.55;75.63
67364;HTU21D;54250;45.572;38.086;2023-05-07T04:46:37;13.36;76.26
67364;HTU21D;54250;45.572;38.086;2023-05-07T04:49:03;13.17;76.82
67364;HTU21D;54250;45.572;38.086;2023-05-07T04:51:29;12.92;77.29
67364;HTU21D;54250;45.572;38.086;2023-05-07T04:53:55;12.78;77.60
67364;HTU21D;54250;45.572;38.086;2023-05-07T04:56:21;12.72;77.68
67364;HTU21D;54250;45.572;38.086;2023-05-07T04:58:47;12.64;78.23
67364;HTU21D;54250;45.572;38.086;2023-05-07T05:01:15;12.62;78.48
67364;HTU21D;54250;45.572;38.086;2023-05-07T05:03:41;12.63;78.79
67364;HTU21D;54250;45.572;38.086;2023-05-07T05:06:07;12.69;78.39
67364;HTU21D;54250;45.572;38.086;2023-05-07T05:08:34;12.76;78.12
67364;HTU21D;54250;45.572;38.086;2023-05-07T05:11:02;12.80;78.38
67364;HTU21D;54250;45.572;38.086;2023-05-07T05:13:29;12.81;78.55
67364;HTU21D;54250;45.572;38.086;2023-05-07T05:15:56;12.85;78.37
67364;HTU21D;54250;45.572;38.086;2023-05-07T05:18:23;12.90;78.22
67364;HTU21D;54250;45.572;38.086;2023-05-07T05:20:51;12.97;78.21
67364;HTU21D;54250;45.572;38.086;2023-05-07T05:23:18;13.02;77.93
67364;HTU21D;54250;45.572;38.086;2023-05-07T05:25:44;13.06;77.92
67364;HTU21D;54250;45.572;38.086;2023-05-07T05:28:12;13.10;77.97
67364;HTU21D;54250;45.572;38.086;2023-05-07T05:30:39;13.18;77.72
67364;HTU21D;54250;45.572;38.086;2023-05-07T05:33:05;13.25;77.58
67364;HTU21D;54250;45.572;38.086;2023-05-07T05:35:31;13.29;77.62
67364;HTU21D;54250;45.572;38.086;2023-05-07T05:38:00;13.33;77.53
67364;HTU21D;54250;45.572;38.086;2023-05-07T05:40:26;13.40;77.27
67364;HTU21D;54250;45.572;38.086;2023-05-07T05:42:53;13.46;77.37
67364;HTU21D;54250;45.572;38.086;2023-05-07T05:45:19;13.49;77.34
67364;HTU21D;54250;45.572;38.086;2023-05-07T05:47:45;13.51;77.34
67364;HTU21D;54250;45.572;38.086;2023-05-07T05:50:12;13.58;77.27
67364;HTU21D;54250;45.572;38.086;2023-05-07T05:52:38;13.63;77.17
67364;HTU21D;54250;45.572;38.086;2023-05-07T05:55:04;13.67;77.20
67364;HTU21D;54250;45.572;38.086;2023-05-07T05:57:31;13.74;77.00
67364;HTU21D;54250;45.572;38.086;2023-05-07T05:59:57;13.77;76.88
67364;HTU21D;54250;45.572;38.086;2023-05-07T06:02:24;13.80;76.92
67364;HTU21D;54250;45.572;38.086;2023-05-07T06:04:50;13.79;76.99
67364;HTU21D;54250;45.572;38.086;2023-05-07T06:07:18;13.78;77.34
67364;HTU21D;54250;45.572;38.086;2023-05-07T06:09:44;13.77;77.47
67364;HTU21D;54250;45.572;38.086;2023-05-07T06:12:11;13.79;77.62
67364;HTU21D;54250;45.572;38.086;2023-05-07T06:14:37;13.73;78.10
67364;HTU21D;54250;45.572;38.086;2023-05-07T06:17:03;13.65;78.26
67364;HTU21D;54250;45.572;38.086;2023-05-07T06:19:29;13.61;78.43
67364;HTU21D;54250;45.572;38.086;2023-05-07T06:21:57;13.61;78.62
67364;HTU21D;54250;45.572;38.086;2023-05-07T06:24:26;13.69;78.50
67364;HTU21D;54250;45.572;38.086;2023-05-07T06:26:52;13.79;78.36
67364;HTU21D;54250;45.572;38.086;2023-05-07T06:29:18;13.85;78.23
67364;HTU21D;54250;45.572;38.086;2023-05-07T06:31:44;13.94;78.04
67364;HTU21D;54250;45.572;38.086;2023-05-07T06:34:11;14.07;77.77
67364;HTU21D;54250;45.572;38.086;2023-05-07T06:36:41;14.20;77.46
67364;HTU21D;54250;45.572;38.086;2023-05-07T06:39:26;14.40;77.02
67364;HTU21D;54250;45.572;38.086;2023-05-07T06:41:52;14.43;76.90
67364;HTU21D;54250;45.572;38.086;2023-05-07T06:44:24;14.45;76.99
67364;HTU21D;54250;45.572;38.086;2023-05-07T06:47:11;14.36;77.32
67364;HTU21D;54250;45.572;38.086;2023-05-07T06:49:39;14.30;77.53
67364;HTU21D;54250;45.572;38.086;2023-05-07T06:52:05;14.39;77.44
67364;HTU21D;54250;45.572;38.086;2023-05-07T06:54:32;14.49;77.42
67364;HTU21D;54250;45.572;38.086;2023-05-07T06:56:58;14.65;77.00
67364;HTU21D;54250;45.572;38.086;2023-05-07T06:59:26;14.69;76.67
67364;HTU21D;54250;45.572;38.086;2023-05-07T07:01:52;14.73;76.54
67364;HTU21D;54250;45.572;38.086;2023-05-07T07:04:19;14.82;76.48
67364;HTU21D;54250;45.572;38.086;2023-05-07T07:06:53;14.86;76.46
67364;HTU21D;54250;45.572;38.086;2023-05-07T07:09:19;14.93;76.41
67364;HTU21D;54250;45.572;38.086;2023-05-07T07:11:45;15.12;75.95
67364;HTU21D;54250;45.572;38.086;2023-05-07T07:14:12;15.24;75.63
67364;HTU21D;54250;45.572;38.086;2023-05-07T07:16:45;15.34;75.36
67364;HTU21D;54250;45.572;38.086;2023-05-07T07:19:14;15.36;75.18
67364;HTU21D;54250;45.572;38.086;2023-05-07T07:21:42;15.47;75.05
67364;HTU21D;54250;45.572;38.086;2023-05-07T07:24:10;15.69;74.66
67364;HTU21D;54250;45.572;38.086;2023-05-07T07:26:36;15.96;74.07
67364;HTU21D;54250;45.572;38.086;2023-05-07T07:29:03;16.37;73.24
67364;HTU21D;54250;45.572;38.086;2023-05-07T07:31:29;16.67;72.46
67364;HTU21D;54250;45.572;38.086;2023-05-07T07:33:56;17.08;71.87
67364;HTU21D;54250;45.572;38.086;2023-05-07T07:36:22;17.45;70.48
67364;HTU21D;54250;45.572;38.086;2023-05-07T07:38:48;17.76;70.18
67364;HTU21D;54250;45.572;38.086;2023-05-07T07:41:16;18.23;69.48
67364;HTU21D;54250;45.572;38.086;2023-05-07T07:43:43;18.61;68.84
67364;HTU21D;54250;45.572;38.086;2023-05-07T07:46:09;18.71;68.73
67364;HTU21D;54250;45.572;38.086;2023-05-07T07:48:35;18.53;68.75
67364;HTU21D;54250;45.572;38.086;2023-05-07T07:51:01;18.26;69.09
67364;HTU21D;54250;45.572;38.086;2023-05-07T07:53:28;18.28;69.19
67364;HTU21D;54250;45.572;38.086;2023-05-07T07:55:54;18.29;69.07
67364;HTU21D;54250;45.572;38.086;2023-05-07T07:58:23;18.32;68.78
67364;HTU21D;54250;45.572;38.086;2023-05-07T08:00:51;18.47;68.78
67364;HTU21D;54250;45.572;38.086;2023-05-07T08:03:17;18.83;68.27
67364;HTU21D;54250;45.572;38.086;2023-05-07T08:05:47;18.97;67.46
67364;HTU21D;54250;45.572;38.086;2023-05-07T08:08:13;19.30;66.82
67364;HTU21D;54250;45.572;38.086;2023-05-07T08:10:41;19.62;66.23
67364;HTU21D;54250;45.572;38.086;2023-05-07T08:13:14;19.82;65.17
67364;HTU21D;54250;45.572;38.086;2023-05-07T08:15:42;19.72;65.20
67364;HTU21D;54250;45.572;38.086;2023-05-07T08:18:09;19.90;65.00
67364;HTU21D;54250;45.572;38.086;2023-05-07T08:20:36;20.03;64.14
67364;HTU21D;54250;45.572;38.086;2023-05-07T08:23:06;19.95;64.75
67364;HTU21D;54250;45.572;38.086;2023-05-07T08:25:34;19.94;64.81
67364;HTU21D;54250;45.572;38.086;2023-05-07T08:28:01;19.62;65.23
67364;HTU21D;54250;45.572;38.086;2023-05-07T08:30:27;19.31;65.75
67364;HTU21D;54250;45.572;38.086;2023-05-07T08:32:53;19.23;65.75
67364;HTU21D;54250;45.572;38.086;2023-05-07T08:35:23;19.14;65.95
67364;HTU21D;54250;45.572;38.086;2023-05-07T08:37:57;19.08;66.00
67364;HTU21D;54250;45.572;38.086;2023-05-07T08:40:25;18.93;66.03
67364;HTU21D;54250;45.572;38.086;2023-05-07T08:42:53;18.89;66.33
67364;HTU21D;54250;45.572;38.086;2023-05-07T08:45:20;19.05;65.61
67364;HTU21D;54250;45.572;38.086;2023-05-07T08:47:54;19.23;65.45
67364;HTU21D;54250;45.572;38.086;2023-05-07T08:50:26;19.17;65.09
67364;HTU21D;54250;45.572;38.086;2023-05-07T08:52:53;19.18;65.21
67364;HTU21D;54250;45.572;38.086;2023-05-07T08:55:21;19.27;65.30
67364;HTU21D;54250;45.572;38.086;2023-05-07T08:57:48;19.46;64.99
67364;HTU21D;54250;45.572;38.086;2023-05-07T09:00:18;19.61;64.63
67364;HTU21D;54250;45.572;38.086;2023-05-07T09:02:52;19.85;64.34
67364;HTU21D;54250;45.572;38.086;2023-05-07T09:05:43;20.18;63.82
67364;HTU21D;54250;45.572;38.086;2023-05-07T09:08:15;20.63;63.15
67364;HTU21D;54250;45.572;38.086;2023-05-07T09:10:42;20.92;62.50
67364;HTU21D;54250;45.572;38.086;2023-05-07T09:13:11;20.95;62.62
67364;HTU21D;54250;45.572;38.086;2023-05-07T09:15:40;21.25;62.31
67364;HTU21D;54250;45.572;38.086;2023-05-07T09:18:07;21.62;61.44
67364;HTU21D;54250;45.572;38.086;2023-05-07T09:20:36;21.88;60.66
67364;HTU21D;54250;45.572;38.086;2023-05-07T09:23:03;21.92;60.46
67364;HTU21D;54250;45.572;38.086;2023-05-07T09:25:34;22.06;60.35
67364;HTU21D;54250;45.572;38.086;2023-05-07T09:28:06;22.44;59.64
67364;HTU21D;54250;45.572;38.086;2023-05-07T09:30:34;22.39;59.67
67364;HTU21D;54250;45.572;38.086;2023-05-07T09:33:03;22.50;59.76
67364;HTU21D;54250;45.572;38.086;2023-05-07T09:35:32;22.42;60.03
67364;HTU21D;54250;45.572;38.086;2023-05-07T09:38:04;22.48;60.28
67364;HTU21D;54250;45.572;38.086;2023-05-07T09:40:33;22.65;59.89
67364;HTU21D;54250;45.572;38.086;2023-05-07T09:43:11;22.62;60.05
67364;HTU21D;54250;45.572;38.086;2023-05-07T09:45:42;22.51;59.80
67364;HTU21D;54250;45.572;38.086;2023-05-07T09:48:10;22.26;59.64
67364;HTU21D;54250;45.572;38.086;2023-05-07T09:50:48;22.08;59.90
67364;HTU21D;54250;45.572;38.086;2023-05-07T09:53:17;21.53;60.37
67364;HTU21D;54250;45.572;38.086;2023-05-07T09:55:44;21.37;60.99
67364;HTU21D;54250;45.572;38.086;2023-05-07T09:58:12;21.27;61.07
67364;HTU21D;54250;45.572;38.086;2023-05-07T10:00:41;21.18;61.05
67364;HTU21D;54250;45.572;38.086;2023-05-07T10:03:13;21.20;60.76
67364;HTU21D;54250;45.572;38.086;2023-05-07T10:05:51;21.01;61.02
67364;HTU21D;54250;45.572;38.086;2023-05-07T10:08:19;21.03;61.04
67364;HTU21D;54250;45.572;38.086;2023-05-07T10:10:49;21.11;60.74
67364;HTU21D;54250;45.572;38.086;2023-05-07T10:13:19;21.10;60.86
67364;HTU21D;54250;45.572;38.086;2023-05-07T10:15:49;20.98;61.15
67364;HTU21D;54250;45.572;38.086;2023-05-07T10:18:18;21.08;61.16
67364;HTU21D;54250;45.572;38.086;2023-05-07T10:20:51;21.19;60.74
67364;HTU21D;54250;45.572;38.086;2023-05-07T10:23:22;21.00;61.27
67364;HTU21D;54250;45.572;38.086;2023-05-07T10:25:50;20.91;61.60
67364;HTU21D;54250;45.572;38.086;2023-05-07T10:28:22;20.89;61.74
67364;HTU21D;54250;45.572;38.086;2023-05-07T10:33:37;20.72;61.85
67364;HTU21D;54250;45.572;38.086;2023-05-07T10:36:06;20.42;62.44
67364;HTU21D;54250;45.572;38.086;2023-05-07T10:38:34;20.39;62.75
67364;HTU21D;54250;45.572;38.086;2023-05-07T10:41:01;20.31;62.86
67364;HTU21D;54250;45.572;38.086;2023-05-07T10:43:42;20.07;63.25
67364;HTU21D;54250;45.572;38.086;2023-05-07T10:51:40;19.84;63.55
67364;HTU21D;54250;45.572;38.086;2023-05-07T10:56:49;20.05;63.08
67364;HTU21D;54250;45.572;38.086;2023-05-07T11:02:04;19.88;63.22
67364;HTU21D;54250;45.572;38.086;2023-05-07T11:08:01;20.01;63.57
67364;HTU21D;54250;45.572;38.086;2023-05-07T11:10:50;19.96;63.50
67364;HTU21D;54250;45.572;38.086;2023-05-07T11:13:47;19.81;63.76
67364;HTU21D;54250;45.572;38.086;2023-05-07T11:16:34;19.86;63.54
67364;HTU21D;54250;45.572;38.086;2023-05-07T11:22:39;20.12;63.44
67364;HTU21D;54250;45.572;38.086;2023-05-07T11:25:18;20.10;63.42
67364;HTU21D;54250;45.572;38.086;2023-05-07T11:27:54;19.85;63.78
67364;HTU21D;54250;45.572;38.086;2023-05-07T11:30:21;19.71;64.12
67364;HTU21D;54250;45.572;38.086;2023-05-07T11:32:47;19.71;64.15
67364;HTU21D;54250;45.572;38.086;2023-05-07T11:35:16;19.60;64.37
67364;HTU21D;54250;45.572;38.086;2023-05-07T11:37:44;19.61;64.58
67364;HTU21D;54250;45.572;38.086;2023-05-07T11:40:12;19.55;64.63
67364;HTU21D;54250;45.572;38.086;2023-05-07T11:42:40;19.54;64.73
67364;HTU21D;54250;45.572;38.086;2023-05-07T11:45:09;19.60;64.71
67364;HTU21D;54250;45.572;38.086;2023-05-07T11:47:36;19.55;64.59
67364;HTU21D;54250;45.572;38.086;2023-05-07T11:50:04;19.60;64.53
67364;HTU21D;54250;45.572;38.086;2023-05-07T11:52:31;19.65;64.65
67364;HTU21D;54250;45.572;38.086;2023-05-07T11:54:59;19.75;64.49
67364;HTU21D;54250;45.572;38.086;2023-05-07T11:57:29;19.87;64.35
67364;HTU21D;54250;45.572;38.086;2023-05-07T11:59:56;20.03;64.18
67364;HTU21D;54250;45.572;38.086;2023-05-07T12:02:23;20.09;64.12
67364;HTU21D;54250;45.572;38.086;2023-05-07T12:04:54;19.96;63.89
67364;HTU21D;54250;45.572;38.086;2023-05-07T12:07:21;19.74;64.50
67364;HTU21D;54250;45.572;38.086;2023-05-07T12:09:47;19.73;64.50
67364;HTU21D;54250;45.572;38.086;2023-05-07T12:12:14;19.80;64.56
67364;HTU21D;54250;45.572;38.086;2023-05-07T12:14:42;19.71;64.52
67364;HTU21D;54250;45.572;38.086;2023-05-07T12:17:09;19.61;64.76
67364;HTU21D;54250;45.572;38.086;2023-05-07T12:19:36;19.61;64.76
67364;HTU21D;54250;45.572;38.086;2023-05-07T12:22:03;19.61;64.69
67364;HTU21D;54250;45.572;38.086;2023-05-07T12:27:11;19.52;64.83
67364;HTU21D;54250;45.572;38.086;2023-05-07T12:29:37;19.45;64.79
67364;HTU21D;54250;45.572;38.086;2023-05-07T12:32:13;19.29;65.25
67364;HTU21D;54250;45.572;38.086;2023-05-07T12:34:40;19.18;65.59
67364;HTU21D;54250;45.572;38.086;2023-05-07T12:37:06;19.17;65.54
67364;HTU21D;54250;45.572;38.086;2023-05-07T12:39:32;19.08;65.69
67364;HTU21D;54250;45.572;38.086;2023-05-07T12:41:59;18.95;65.89
67364;HTU21D;54250;45.572;38.086;2023-05-07T12:44:29;18.88;65.93
67364;HTU21D;54250;45.572;38.086;2023-05-07T12:46:56;18.81;66.21
67364;HTU21D;54250;45.572;38.086;2023-05-07T12:49:23;18.74;66.26
67364;HTU21D;54250;45.572;38.086;2023-05-07T12:51:50;18.67;66.40
67364;HTU21D;54250;45.572;38.086;2023-05-07T12:54:32;18.58;66.54
67364;HTU21D;54250;45.572;38.086;2023-05-07T12:57:06;18.46;66.91
67364;HTU21D;54250;45.572;38.086;2023-05-07T12:59:37;18.39;67.08
67364;HTU21D;54250;45.572;38.086;2023-05-07T13:02:04;18.38;67.02
67364;HTU21D;54250;45.572;38.086;2023-05-07T13:04:31;18.35;67.13
67364;HTU21D;54250;45.572;38.086;2023-05-07T13:06:58;18.32;67.43
67364;HTU21D;54250;45.572;38.086;2023-05-07T13:09:24;18.42;67.20
67364;HTU21D;54250;45.572;38.086;2023-05-07T13:11:50;18.55;66.96
67364;HTU21D;54250;45.572;38.086;2023-05-07T13:14:16;18.53;67.23
67364;HTU21D;54250;45.572;38.086;2023-05-07T13:16:42;18.52;67.41
67364;HTU21D;54250;45.572;38.086;2023-05-07T13:19:08;18.49;67.65
67364;HTU21D;54250;45.572;38.086;2023-05-07T13:21:34;18.59;67.42
67364;HTU21D;54250;45.572;38.086;2023-05-07T13:24:00;18.67;67.30
67364;HTU21D;54250;45.572;38.086;2023-05-07T13:26:26;18.66;67.38
67364;HTU21D;54250;45.572;38.086;2023-05-07T13:28:55;18.68;67.52
67364;HTU21D;54250;45.572;38.086;2023-05-07T13:31:21;18.73;67.37
67364;HTU21D;54250;45.572;38.086;2023-05-07T13:33:47;18.80;67.30
67364;HTU21D;54250;45.572;38.086;2023-05-07T13:36:13;18.67;67.51
67364;HTU21D;54250;45.572;38.086;2023-05-07T13:38:40;18.62;67.64
67364;HTU21D;54250;45.572;38.086;2023-05-07T13:41:06;18.57;67.73
67364;HTU21D;54250;45.572;38.086;2023-05-07T13:43:32;18.61;67.67
67364;HTU21D;54250;45.572;38.086;2023-05-07T13:46:01;18.57;67.75
67364;HTU21D;54250;45.572;38.086;2023-05-07T13:48:27;18.53;67.84
67364;HTU21D;54250;45.572;38.086;2023-05-07T13:50:54;18.49;67.91
67364;HTU21D;54250;45.572;38.086;2023-05-07T13:53:20;18.40;67.98
67364;HTU21D;54250;45.572;38.086;2023-05-07T13:55:46;18.30;68.17
67364;HTU21D;54250;45.572;38.086;2023-05-07T13:58:12;18.20;68.33
67364;HTU21D;54250;45.572;38.086;2023-05-07T14:00:38;18.17;68.37
67364;HTU21D;54250;45.572;38.086;2023-05-07T14:03:04;18.05;68.58
67364;HTU21D;54250;45.572;38.086;2023-05-07T14:05:31;18.00;68.53
67364;HTU21D;54250;45.572;38.086;2023-05-07T14:07:58;17.99;68.51
67364;HTU21D;54250;45.572;38.086;2023-05-07T14:10:24;17.92;68.58
67364;HTU21D;54250;45.572;38.086;2023-05-07T14:12:50;17.81;68.87
67364;HTU21D;54250;45.572;38.086;2023-05-07T14:15:18;17.74;68.98
67364;HTU21D;54250;45.572;38.086;2023-05-07T14:17:44;17.67;69.14
67364;HTU21D;54250;45.572;38.086;2023-05-07T14:20:11;17.63;69.26
67364;HTU21D;54250;45.572;38.086;2023-05-07T14:22:37;17.65;69.19
67364;HTU21D;54250;45.572;38.086;2023-05-07T14:25:04;17.67;69.16
67364;HTU21D;54250;45.572;38.086;2023-05-07T14:27:30;17.68;69.38
67364;HTU21D;54250;45.572;38.086;2023-05-07T14:29:56;17.76;69.18
67364;HTU21D;54250;45.572;38.086;2023-05-07T14:32:22;17.75;69.28
67364;HTU21D;54250;45.572;38.086;2023-05-07T14:34:48;17.70;69.43
67364;HTU21D;54250;45.572;38.086;2023-05-07T14:37:15;17.66;69.66
67364;HTU21D;54250;45.572;38.086;2023-05-07T14:39:41;17.62;69.68
67364;HTU21D;54250;45.572;38.086;2023-05-07T14:42:07;17.62;69.64
67364;HTU21D;54250;45.572;38.086;2023-05-07T14:44:35;17.65;69.67
67364;HTU21D;54250;45.572;38.086;2023-05-07T14:47:01;17.61;69.70
67364;HTU21D;54250;45.572;38.086;2023-05-07T14:49:27;17.49;69.85
67364;HTU21D;54250;45.572;38.086;2023-05-07T14:51:53;17.36;70.11
67364;HTU21D;54250;45.572;38.086;2023-05-07T14:54:20;17.20;70.44
67364;HTU21D;54250;45.572;38.086;2023-05-07T14:56:46;17.13;70.67
67364;HTU21D;54250;45.572;38.086;2023-05-07T14:59:12;17.05;70.61
67364;HTU21D;54250;45.572;38.086;2023-05-07T15:01:38;16.96;70.68
67364;HTU21D;54250;45.572;38.086;2023-05-07T15:04:08;16.90;70.77
67364;HTU21D;54250;45.572;38.086;2023-05-07T15:06:34;16.91;70.77
67364;HTU21D;54250;45.572;38.086;2023-05-07T15:09:00;16.92;70.68
67364;HTU21D;54250;45.572;38.086;2023-05-07T15:11:26;16.89;70.74
67364;HTU21D;54250;45.572;38.086;2023-05-07T15:13:52;16.84;70.90
67364;HTU21D;54250;45.572;38.086;2023-05-07T15:16:18;16.73;71.09
67364;HTU21D;54250;45.572;38.086;2023-05-07T15:18:44;16.66;71.13
67364;HTU21D;54250;45.572;38.086;2023-05-07T15:21:10;16.55;71.42
67364;HTU21D;54250;45.572;38.086;2023-05-07T15:23:36;16.42;71.77
67364;HTU21D;54250;45.572;38.086;2023-05-07T15:26:04;16.30;72.16
67364;HTU21D;54250;45.572;38.086;2023-05-07T15:28:31;16.24;72.29
67364;HTU21D;54250;45.572;38.086;2023-05-07T15:30:58;16.13;72.41